Time;durP1;ratioP1;P1;durP2;ratioP2;P2;SDS_P1;SDS_P2;PMS_P1;PMS_P2;Temp;Humidity;BMP_temperature;BMP_pressure;BME280_temperature;BME280_humidity;BME280_pressure;Samples;Min_cycle;Max_cycle;Signal;HPM_P1;HPM_P2
2023/10/12 00:00:41;;;;;;;6.28;3.25;;;21.30;87.00;;;;;;5012950;28;20042;-72
2023/10/12 00:03:07;;;;;;;6.57;4.00;;;;;;;;;;5012628;28;20073;-72
2023/10/12 00:05:34;;;;;;;5.35;4.18;;;;;;;;;;5012923;28;20400;-72
2023/10/12 00:08:10;;;;;;;6.25;3.40;;;;;;;;;;5012847;28;20052;-72
2023/10/12 00:10:44;;;;;;;6.28;3.63;;;;;;;;;;5012879;28;20040;-72
2023/10/12 00:13:12;;;;;;;6.20;3.38;;;;;;;;;;5012797;28;20061;-72
2023/10/12 00:15:45;;;;;;;5.45;3.63;;;;;;;;;;5012857;28;20038;-72
2023/10/12 00:18:14;;;;;;;5.68;3.60;;;;;;;;;;5012836;28;20038;-76
2023/10/12 00:20:44;;;;;;;6.50;3.58;;;21.20;87.10;;;;;;5012239;28;20105;-75
2023/10/12 00:23:10;;;;;;;4.60;3.38;;;;;;;;;;5012701;28;20036;-75
2023/10/12 00:25:46;;;;;;;6.50;3.75;;;21.20;87.30;;;;;;5012128;28;20504;-75
2023/10/12 00:28:17;;;;;;;6.72;3.88;;;21.30;81.90;;;;;;5012747;28;20030;-75
2023/10/12 00:30:46;;;;;;;6.53;3.58;;;;;;;;;;5012291;28;20040;-75
2023/10/12 00:33:17;;;;;;;5.53;3.70;;;21.10;81.40;;;;;;5012497;28;20488;-75
2023/10/12 00:35:59;;;;;;;5.97;4.15;;;21.20;87.20;;;;;;5012341;28;20026;-75
2023/10/12 00:38:29;;;;;;;5.90;3.80;;;;;;;;;;5011946;28;20040;-75
2023/10/12 00:41:04;;;;;;;6.27;3.50;;;21.10;81.70;;;;;;5012236;28;20404;-75
2023/10/12 00:43:36;;;;;;;5.72;4.00;;;;;;;;;;5012348;28;20642;-75
2023/10/12 00:46:20;;;;;;;4.40;3.58;;;21.20;87.10;;;;;;5012061;28;20041;-75
2023/10/12 00:48:58;;;;;;;4.93;3.78;;;;;;;;;;5012079;28;20145;-75
2023/10/12 00:51:30;;;;;;;7.53;4.07;;;;;;;;;;5012090;28;20413;-75
2023/10/12 00:53:56;;;;;;;4.65;3.38;;;;;;;;;;5011861;28;20057;-75
2023/10/12 00:56:24;;;;;;;3.40;3.10;;;21.40;87.40;;;;;;5011997;28;20034;-75
2023/10/12 00:58:50;;;;;;;6.13;3.47;;;;;;;;;;5011777;28;20065;-75
2023/10/12 01:01:20;;;;;;;6.30;3.60;;;;;;;;;;5011690;28;20038;-75
2023/10/12 01:03:47;;;;;;;4.47;3.20;;;;;;;;;;5012083;28;20048;-72
2023/10/12 01:06:27;;;;;;;5.10;3.45;;;;;;;;;;5011641;28;20089;-71
2023/10/12 01:09:18;;;;;;;5.38;3.75;;;;;;;;;;5011783;28;20125;-71
2023/10/12 01:11:44;;;;;;;;;;;21.10;81.50;;;;;;5012054;28;20404;-71
2023/10/12 01:14:10;;;;;;;5.45;3.58;;;;;;;;;;5011653;28;20287;-71
2023/10/12 01:19:08;;;;;;;4.93;3.47;;;;;;;;;;5011839;28;20034;-71
2023/10/12 01:21:42;;;;;;;4.18;3.28;;;21.10;87.00;;;;;;5011484;28;20113;-72
2023/10/12 01:24:12;;;;;;;4.05;3.53;;;;;;;;;;5011768;28;20077;-72
2023/10/12 01:26:38;;;;;;;6.27;4.07;;;;;;;;;;5011436;28;20125;-71
2023/10/12 01:29:10;;;;;;;6.95;4.00;;;;;;;;;;5011438;28;20067;-71
2023/10/12 01:31:37;;;;;;;4.20;3.65;;;;;;;;;;5012235;28;20125;-75
2023/10/12 01:34:03;;;;;;;3.47;3.13;;;;;;;;;;5011776;28;20135;-75
2023/10/12 01:36:32;;;;;;;5.82;3.60;;;;;;;;;;5011392;28;20038;-75
2023/10/12 01:39:18;;;;;;;7.53;3.95;;;;;;;;;;5011737;28;20055;-76
2023/10/12 01:41:47;;;;;;;4.90;3.53;;;;;;;;;;5011660;28;20094;-76
2023/10/12 01:44:14;;;;;;;3.63;3.17;;;;;;;;;;5011927;28;20049;-76
2023/10/12 01:46:41;;;;;;;4.80;3.53;;;;;;;;;;5011752;28;20088;-75
2023/10/12 01:49:08;;;;;;;4.18;2.80;;;21.10;86.80;;;;;;5011765;28;20108;-75
2023/10/12 01:51:45;;;;;;;6.78;4.30;;;;;;;;;;5011821;28;20397;-75
2023/10/12 01:54:12;;;;;;;4.93;3.28;;;;;;;;;;5011744;28;20504;-75
2023/10/12 01:56:38;;;;;;;6.75;3.75;;;;;;;;;;5011312;28;20077;-76
2023/10/12 01:59:07;;;;;;;6.97;3.33;;;;;;;;;;5011870;28;20045;-72
2023/10/12 02:01:34;;;;;;;7.28;4.20;;;21.10;87.00;;;;;;5011656;28;20065;-72
2023/10/12 02:04:03;;;;;;;4.85;3.92;;;21.00;86.90;;;;;;5015227;28;20515;-71
2023/10/12 02:06:30;;;;;;;5.45;3.30;;;;;;;;;;5015207;28;20042;-72
2023/10/12 02:09:08;;;;;;;5.57;3.42;;;;;;;;;;5015002;28;20034;-71
2023/10/12 02:11:43;;;;;;;5.80;3.55;;;;;;;;;;5014978;28;20038;-72
2023/10/12 02:14:11;;;;;;;4.47;3.63;;;;;;;;;;5014879;28;20563;-72
2023/10/12 02:16:38;;;;;;;5.05;3.60;;;;;;;;;;5014773;28;20536;-72
2023/10/12 02:19:05;;;;;;;5.25;3.60;;;21.00;84.50;;;;;;4997699;28;20043;-72
2023/10/12 02:21:37;;;;;;;6.45;3.53;;;21.10;86.80;;;;;;5015020;28;20042;-72
2023/10/12 02:26:35;;;;;;;4.60;3.50;;;21.00;86.80;;;;;;5014982;28;20041;-72
2023/10/12 02:31:38;;;;;;;4.43;3.10;;;;;;;;;;5014821;28;20030;-76
2023/10/12 02:34:05;;;;;;;4.47;3.28;;;21.00;83.70;;;;;;5014834;28;20049;-76
2023/10/12 02:36:32;;;;;;;4.38;3.35;;;;;;;;;;5014615;28;20038;-75
2023/10/12 02:39:10;;;;;;;6.03;3.40;;;;;;;;;;5014331;28;20049;-71
2023/10/12 02:41:36;;;;;;;5.40;3.92;;;21.00;83.80;;;;;;5014353;28;20461;-71
2023/10/12 02:44:12;;;;;;;4.40;3.53;;;;;;;;;;5014371;28;20034;-71
2023/10/12 02:46:56;;;;;;;4.50;3.20;;;20.90;84.20;;;;;;5014479;28;20050;-71
2023/10/12 02:49:24;;;;;;;3.90;3.53;;;;;;;;;;5014573;28;20044;-71
2023/10/12 02:51:51;;;;;;;4.75;3.42;;;;;;;;;;5014101;28;20454;-71
2023/10/12 02:54:17;;;;;;;4.10;3.35;;;;;;;;;;5014419;28;20037;-71
2023/10/12 02:56:44;;;;;;;4.90;3.67;;;;;;;;;;5014417;28;20049;-75
2023/10/12 02:59:10;;;;;;;5.30;3.50;;;;;;;;;;5014020;28;20041;-75
2023/10/12 03:01:38;;;;;;;4.65;3.60;;;;;;;;;;5013584;28;20034;-75
2023/10/12 03:04:11;;;;;;;5.72;3.60;;;20.90;81.50;;;;;;5013998;28;20046;-75
2023/10/12 03:06:55;;;;;;;3.38;2.80;;;20.90;81.80;;;;;;5013774;28;20128;-75
2023/10/12 03:09:36;;;;;;;3.80;3.40;;;;;;;;;;5012663;28;20040;-75
2023/10/12 03:12:03;;;;;;;5.85;3.70;;;;;;;;;;5014081;28;20105;-76
2023/10/12 03:14:29;;;;;;;5.57;3.30;;;;;;;;;;5013690;28;20038;-76
2023/10/12 03:17:02;;;;;;;4.28;3.47;;;;;;;;;;5014029;28;20034;-75
2023/10/12 03:19:35;;;;;;;4.13;3.38;;;;;;;;;;5013708;28;20396;-75
2023/10/12 03:22:17;;;;;;;4.47;3.10;;;;;;;;;;5013585;28;20038;-75
2023/10/12 03:24:51;;;;;;;3.10;2.80;;;;;;;;;;5013979;28;20041;-75
2023/10/12 03:27:17;;;;;;;3.80;3.15;;;;;;;;;;5013623;28;20550;-75
2023/10/12 03:29:45;;;;;;;3.65;3.28;;;;;;;;;;5013397;28;20049;-75
2023/10/12 03:32:16;;;;;;;4.28;3.45;;;;;;;;;;5013318;28;20038;-75
2023/10/12 03:37:14;;;;;;;3.92;3.15;;;;;;;;;;5013210;28;20036;-75
2023/10/12 03:42:41;;;;;;;4.07;3.50;;;20.90;87.00;;;;;;5013188;28;20096;-75
2023/10/12 03:45:08;;;;;;;3.88;3.10;;;;;;;;;;5012924;28;20037;-76
2023/10/12 03:50:21;;;;;;;4.55;3.30;;;;;;;;;;5013246;28;20056;-75
2023/10/12 03:53:07;;;;;;;4.78;3.97;;;;;;;;;;5013319;28;20076;-75
2023/10/12 03:55:57;;;;;;;4.95;3.40;;;20.80;87.10;;;;;;5012725;28;20070;-75
2023/10/12 03:58:27;;;;;;;5.35;3.63;;;;;;;;;;5012899;28;20061;-75
2023/10/12 04:01:08;;;;;;;;;;;20.70;81.30;;;;;;5013295;28;20046;-77
2023/10/12 04:03:39;;;;;;;4.68;3.17;;;;;;;;;;5012627;28;19933;-75
2023/10/12 04:06:15;;;;;;;5.97;3.78;;;20.80;81.90;;;;;;5012797;28;20060;-75
2023/10/12 04:08:53;;;;;;;5.10;3.72;;;;;;;;;;5012616;28;20040;-75
2023/10/12 04:16:27;;;;;;;6.80;4.30;;;;;;;;;;5012853;28;20065;-75
2023/10/12 04:21:26;;;;;;;7.07;5.32;;;;;;;;;;5012675;28;20110;-75
2023/10/12 04:26:38;;;;;;;6.57;5.90;;;;;;;;;;5012228;28;20042;-75
2023/10/12 04:29:08;;;;;;;6.68;5.97;;;20.80;87.50;;;;;;5012196;28;20041;-75
2023/10/12 04:31:49;;;;;;;7.40;6.70;;;;;;;;;;5012363;28;20034;-75
2023/10/12 04:34:27;;;;;;;7.32;6.63;;;;;;;;;;5011972;28;20126;-75
2023/10/12 04:37:11;;;;;;;7.95;7.07;;;;;;;;;;5010413;28;20037;-76
2023/10/12 04:39:37;;;;;;;8.50;7.22;;;;;;;;;;5012422;28;20034;-72
2023/10/12 04:47:07;;;;;;;8.90;8.05;;;20.70;87.50;;;;;;5012135;28;20507;-72
2023/10/12 04:55:19;;;;;;;9.55;8.55;;;;;;;;;;4988589;28;20030;-75
2023/10/12 04:57:48;;;;;;;9.30;8.43;;;;;;;;;;5011607;28;20046;-76
2023/10/12 05:07:58;;;;;;;9.30;8.40;;;20.70;87.70;;;;;;5011541;28;20129;-76
2023/10/12 05:10:41;;;;;;;9.00;8.20;;;20.70;87.70;;;;;;5011808;28;20030;-75
2023/10/12 05:13:10;;;;;;;9.55;8.65;;;;;;;;;;5011631;28;20034;-75
2023/10/12 05:15:40;;;;;;;9.82;8.55;;;20.70;86.80;;;;;;5011433;28;20038;-75
2023/10/12 05:18:06;;;;;;;;;;;20.80;88.90;;;;;;5011833;28;20038;-75
2023/10/12 05:20:32;;;;;;;8.57;7.88;;;;;;;;;;5011755;28;20275;-79
2023/10/12 05:22:58;;;;;;;8.65;7.80;;;;;;;;;;5011422;28;20034;-76
2023/10/12 05:25:33;;;;;;;9.05;7.90;;;;;;;;;;5011551;28;20030;-75
2023/10/12 05:28:09;;;;;;;9.15;8.02;;;;;;;;;;5011393;28;20133;-75
2023/10/12 05:30:37;;;;;;;8.02;7.22;;;;;;;;;;5011305;28;20033;-75
2023/10/12 05:33:05;;;;;;;8.45;7.65;;;;;;;;;;5011244;28;20132;-75
2023/10/12 05:36:08;;;;;;;7.90;7.18;;;20.70;86.20;;;;;;5011518;28;20045;-74
2023/10/12 05:38:34;;;;;;;7.75;7.05;;;;;;;;;;5012415;28;20452;-73
2023/10/12 05:41:00;;;;;;;7.97;7.20;;;20.90;84.70;;;;;;5015686;28;20099;-73
2023/10/12 05:43:31;;;;;;;7.15;6.50;;;;;;;;;;5015343;28;20030;-72
2023/10/12 05:46:04;;;;;;;7.35;6.63;;;;;;;;;;5015477;28;20419;-72
2023/10/12 05:48:33;;;;;;;7.28;6.57;;;20.60;82.00;;;;;;5015278;28;20117;-73
2023/10/12 05:51:00;;;;;;;7.68;6.78;;;;;;;;;;5015419;28;20094;-74
2023/10/12 05:53:26;;;;;;;7.03;6.32;;;;;;;;;;5014879;28;20046;-74
2023/10/12 05:55:52;;;;;;;7.72;6.05;;;;;;;;;;5015102;28;20044;-75
2023/10/12 05:58:18;;;;;;;6.38;5.70;;;;;;;;;;5014946;28;20116;-72
2023/10/12 06:00:45;;;;;;;6.82;5.75;;;;;;;;;;5014965;28;20161;-74
2023/10/12 06:03:20;;;;;;;8.30;6.47;;;20.70;86.00;;;;;;5014583;28;20053;-74
2023/10/12 06:05:47;;;;;;;6.18;5.57;;;;;;;;;;5015145;28;20033;-75
2023/10/12 06:08:17;;;;;;;7.63;5.50;;;;;;;;;;5015088;28;20034;-75
2023/10/12 06:10:43;;;;;;;8.15;5.32;;;;;;;;;;5015052;28;20038;-75
2023/10/12 06:13:10;;;;;;;5.18;4.68;;;;;;;;;;5015290;28;20070;-75
2023/10/12 06:15:40;;;;;;;5.50;4.72;;;;;;;;;;5015145;28;20042;-75
2023/10/12 06:18:10;;;;;;;5.78;4.70;;;20.70;87.60;;;;;;5015263;28;20108;-73
2023/10/12 06:20:40;;;;;;;5.63;4.55;;;20.70;87.80;;;;;;5014900;28;20054;-73
2023/10/12 06:23:09;;;;;;;;;;;20.40;87.70;;;;;;5015573;28;20068;-73
2023/10/12 06:25:38;;;;;;;5.18;4.60;;;20.60;87.80;;;;;;5015177;28;19905;-73
2023/10/12 06:28:13;;;;;;;4.88;4.32;;;20.60;87.60;;;;;;5014962;28;20056;-73
2023/10/12 06:30:41;;;;;;;6.78;4.13;;;20.60;87.80;;;;;;5015023;28;20401;-73
2023/10/12 06:33:12;;;;;;;5.75;4.13;;;;;;;;;;5014777;28;20061;-73
2023/10/12 06:35:39;;;;;;;5.60;3.95;;;;;;;;;;5015268;28;20033;-73
2023/10/12 06:38:23;;;;;;;6.20;4.05;;;;;;;;;;5014696;28;20034;-74
2023/10/12 06:41:00;;;;;;;6.00;3.78;;;;;;;;;;5014729;28;20502;-76
2023/10/12 06:45:56;;;;;;;5.05;3.35;;;;;;;;;;5014706;28;20033;-76
2023/10/12 06:51:02;;;;;;;4.75;3.83;;;;;;;;;;5014764;28;20506;-73
2023/10/12 06:53:33;;;;;;;5.25;3.95;;;;;;;;;;5014642;28;20037;-75
2023/10/12 06:56:13;;;;;;;4.75;3.88;;;;;;;;;;4996613;28;20034;-77
2023/10/12 06:58:39;;;;;;;7.22;3.25;;;;;;;;;;5014447;28;20391;-74
2023/10/12 07:03:49;;;;;;;7.53;3.60;;;;;;;;;;5014782;28;20072;-73
2023/10/12 07:06:15;;;;;;;5.68;3.10;;;;;;;;;;5014034;28;20530;-73
2023/10/12 07:08:43;;;;;;;4.88;3.40;;;20.50;87.60;;;;;;5014210;28;20056;-74
2023/10/12 07:11:11;;;;;;;3.45;3.15;;;20.50;86.30;;;;;;5014046;28;20034;-76
2023/10/12 07:13:45;;;;;;;3.97;3.30;;;;;;;;;;5013965;28;20396;-76
2023/10/12 07:16:15;;;;;;;4.40;3.30;;;;;;;;;;5014271;28;20129;-77
2023/10/12 07:18:44;;;;;;;3.25;2.92;;;;;;;;;;5014259;28;20041;-77
2023/10/12 07:21:20;;;;;;;4.38;2.88;;;20.50;86.20;;;;;;5013904;28;20033;-77
2023/10/12 07:23:52;;;;;;;3.17;2.90;;;20.50;86.80;;;;;;5014014;28;20069;-77
2023/10/12 07:26:18;;;;;;;4.47;2.65;;;;;;;;;;5014064;28;20038;-76
2023/10/12 07:28:49;;;;;;;4.38;3.38;;;;;;;;;;5014398;28;20041;-77
2023/10/12 07:41:48;;;;;;;3.03;2.55;;;;;;;;;;5013704;28;20117;-75
2023/10/12 07:44:15;;;;;;;2.90;2.40;;;;;;;;;;5013997;28;20112;-77
2023/10/12 07:46:42;;;;;;;2.58;2.38;;;;;;;;;;5013508;28;20045;-77
2023/10/12 07:52:04;;;;;;;3.22;2.20;;;;;;;;;;5013680;28;20037;-78
2023/10/12 07:54:46;;;;;;;3.15;2.15;;;;;;;;;;5013264;28;20037;-79
2023/10/12 07:57:13;;;;;;;3.65;2.17;;;;;;;;;;5013342;28;20083;-77
2023/10/12 07:59:48;;;;;;;3.30;2.30;;;;;;;;;;5013078;28;20400;-77
2023/10/12 08:02:15;;;;;;;3.22;2.38;;;;;;;;;;5012799;28;20500;-74
2023/10/12 08:04:57;;;;;;;3.40;2.40;;;;;;;;;;5013171;28;20042;-73
2023/10/12 08:07:26;;;;;;;2.08;1.88;;;;;;;;;;5015040;28;20057;-74
2023/10/12 08:09:54;;;;;;;3.45;2.40;;;20.50;87.50;;;;;;5013316;28;20037;-75
2023/10/12 08:12:24;;;;;;;2.30;2.03;;;;;;;;;;5013412;28;20038;-81
2023/10/12 08:14:54;;;;;;;2.05;1.85;;;;;;;;;;5012870;28;20034;-76
2023/10/12 08:17:45;;;;;;;3.15;2.30;;;;;;;;;;5013126;28;20408;-76
2023/10/12 08:23:01;;;;;;;2.35;2.15;;;;;;;;;;5013100;28;20045;-75
2023/10/12 08:25:27;;;;;;;2.50;2.03;;;;;;;;;;4996638;28;20113;-76
2023/10/12 08:27:54;;;;;;;1.92;1.75;;;;;;;;;;5013522;28;20042;-80
2023/10/12 08:30:48;;;;;;;3.28;2.45;;;;;;;;;;5012603;28;20038;-77
2023/10/12 08:33:15;;;;;;;1.92;1.83;;;;;;;;;;5011907;28;20140;-78
2023/10/12 08:38:40;;;;;;;2.97;1.95;;;;;;;;;;5012786;28;20041;-78
2023/10/12 08:41:21;;;;;;;;;;;20.50;82.30;;;;;;5013087;28;20446;-75
2023/10/12 08:43:52;;;;;;;2.50;1.85;;;20.40;85.80;;;;;;5012648;28;19905;-75
2023/10/12 08:52:05;;;;;;;3.00;2.10;;;20.40;87.50;;;;;;5012660;28;20100;-74
2023/10/12 08:54:37;;;;;;;1.95;1.70;;;20.40;82.30;;;;;;5012559;28;20033;-74
2023/10/12 08:57:37;;;;;;;1.85;1.63;;;20.40;82.20;;;;;;5013098;28;20026;-78
2023/10/12 09:02:52;;;;;;;2.78;1.83;;;20.40;82.20;;;;;;5012189;28;20042;-77
2023/10/12 09:05:28;;;;;;;2.20;1.50;;;20.10;87.30;;;;;;5012351;28;20124;-77
2023/10/12 09:13:30;;;;;;;1.40;1.30;;;20.40;82.30;;;;;;5012524;28;20068;-75
2023/10/12 09:16:14;;;;;;;2.40;1.60;;;20.30;82.20;;;;;;5012259;28;20029;-72
2023/10/12 09:18:57;;;;;;;2.88;1.70;;;;;;;;;;5012258;28;20034;-74
2023/10/12 09:21:28;;;;;;;2.50;1.70;;;;;;;;;;5011978;28;20032;-74
2023/10/12 09:26:34;;;;;;;2.30;1.90;;;20.30;87.20;;;;;;5012043;28;20049;-77
2023/10/12 09:29:12;;;;;;;3.67;1.42;;;20.40;85.90;;;;;;5011801;28;20034;-76
2023/10/12 09:36:37;;;;;;;1.33;1.23;;;;;;;;;;5012044;28;20034;-78
2023/10/12 09:39:11;;;;;;;2.15;1.50;;;;;;;;;;5011972;28;20042;-78
2023/10/12 09:41:40;;;;;;;2.08;1.70;;;21.90;88.60;;;;;;5011732;28;20113;-78
2023/10/12 09:44:07;;;;;;;1.50;1.25;;;20.30;87.10;;;;;;5011892;28;20042;-78
2023/10/12 09:46:34;;;;;;;1.55;1.45;;;;;;;;;;5011558;28;20034;-74
2023/10/12 09:49:06;;;;;;;1.80;1.48;;;;;;;;;;5011429;28;20035;-74
2023/10/12 09:51:45;;;;;;;1.45;1.35;;;20.30;82.20;;;;;;5011906;28;20094;-74
2023/10/12 09:54:21;;;;;;;1.40;1.30;;;20.30;87.60;;;;;;5011598;28;20116;-74
2023/10/12 09:56:57;;;;;;;1.60;1.50;;;20.40;87.90;;;;;;5011591;28;20485;-74
2023/10/12 09:59:23;;;;;;;1.70;1.50;;;;;;;;;;5011467;28;20037;-74
2023/10/12 10:01:49;;;;;;;1.35;1.25;;;;;;;;;;5011668;28;20040;-74
2023/10/12 10:07:26;;;;;;;1.80;1.20;;;20.30;82.30;;;;;;5011779;28;20046;-74
2023/10/12 10:09:53;;;;;;;1.95;1.30;;;20.30;87.40;;;;;;5010897;28;20045;-74
2023/10/12 10:12:22;;;;;;;2.13;1.40;;;20.30;84.50;;;;;;5011402;28;20514;-74
2023/10/12 10:15:24;;;;;;;1.65;1.30;;;20.40;87.70;;;;;;4994321;28;20423;-73
2023/10/12 10:17:49;;;;;;;2.85;1.42;;;20.40;87.80;;;;;;5008341;28;20129;-72
2023/10/12 10:23:01;;;;;;;1.63;1.33;;;20.30;82.50;;;;;;5012766;28;20064;-74
2023/10/12 10:25:43;;;;;;;1.65;1.55;;;20.10;82.50;;;;;;5015215;28;20635;-74
2023/10/12 10:28:13;;;;;;;2.00;1.55;;;20.30;88.10;;;;;;5015017;28;20060;-73
2023/10/12 10:30:49;;;;;;;2.08;1.52;;;20.30;82.60;;;;;;5015085;28;20038;-76
2023/10/12 10:33:22;;;;;;;2.08;1.33;;;20.30;88.00;;;;;;5015185;28;20062;-78
2023/10/12 10:36:13;;;;;;;2.00;1.33;;;20.40;82.70;;;;;;5014967;28;20108;-77
2023/10/12 10:38:53;;;;;;;1.55;1.30;;;;;;;;;;5015194;28;20440;-77
2023/10/12 10:44:21;;;;;;;1.65;1.30;;;;;;;;;;5014898;28;20112;-74
2023/10/12 10:46:49;;;;;;;1.90;1.30;;;20.30;88.30;;;;;;5015060;28;20100;-78
2023/10/12 10:49:16;;;;;;;1.90;1.50;;;20.30;87.50;;;;;;5015255;28;20034;-74
2023/10/12 10:52:02;;;;;;;1.67;1.30;;;20.30;82.80;;;;;;5014667;28;20033;-74
2023/10/12 10:54:29;;;;;;;1.67;1.45;;;20.40;86.00;;;;;;5014742;28;20026;-76
2023/10/12 10:56:58;;;;;;;2.60;1.40;;;20.30;85.20;;;;;;5014774;28;20042;-76
2023/10/12 10:59:24;;;;;;;1.47;1.30;;;;;;;;;;5014775;28;20125;-73
2023/10/12 11:01:51;;;;;;;2.90;1.70;;;;;;;;;;5014843;28;20045;-75
2023/10/12 11:07:03;;;;;;;3.15;1.63;;;;;;;;;;5014962;28;20081;-72
2023/10/12 11:09:49;;;;;;;2.25;1.60;;;20.30;88.30;;;;;;5014547;28;20105;-75
2023/10/12 11:12:15;;;;;;;1.42;1.25;;;;;;;;;;5014701;28;20034;-75
2023/10/12 11:14:52;;;;;;;1.20;1.10;;;;;;;;;;5014604;28;20120;-76
2023/10/12 11:17:20;;;;;;;2.65;1.65;;;20.30;88.60;;;;;;5014337;28;20049;-74
2023/10/12 11:19:46;;;;;;;3.40;1.73;;;20.30;87.00;;;;;;5014359;28;20034;-72
2023/10/12 11:22:15;;;;;;;2.33;1.83;;;20.30;83.20;;;;;;5014621;28;20038;-72
2023/10/12 11:24:53;;;;;;;1.77;1.30;;;20.30;83.20;;;;;;5014281;28;20033;-73
2023/10/12 11:27:32;;;;;;;2.17;1.48;;;20.30;83.00;;;;;;5014179;28;20049;-76
2023/10/12 11:30:08;;;;;;;1.73;1.48;;;20.30;88.50;;;;;;5014045;28;20030;-73
2023/10/12 11:32:54;;;;;;;2.72;1.88;;;20.30;88.60;;;;;;5014292;28;20042;-73
2023/10/12 11:35:33;;;;;;;1.92;1.70;;;20.30;83.10;;;;;;5013272;28;20034;-76
2023/10/12 11:38:03;;;;;;;2.83;1.63;;;20.30;87.00;;;;;;5014033;28;20038;-75
2023/10/12 11:40:30;;;;;;;1.88;1.42;;;20.30;88.70;;;;;;5013703;28;20030;-75
2023/10/12 11:42:57;;;;;;;2.60;1.70;;;;;;;;;;5014146;28;20040;-75
2023/10/12 11:45:33;;;;;;;2.90;1.67;;;;;;;;;;5014007;28;20038;-74
2023/10/12 11:48:22;;;;;;;1.85;1.75;;;20.30;83.20;;;;;;5013957;28;20073;-77
2023/10/12 11:50:51;;;;;;;1.80;1.70;;;20.30;83.10;;;;;;5013628;28;20089;-77
2023/10/12 11:53:17;;;;;;;1.73;1.58;;;;;;;;;;5013610;28;20050;-76
2023/10/12 11:55:50;;;;;;;2.42;1.75;;;20.30;83.40;;;;;;5013799;28;20045;-76
2023/10/12 11:58:33;;;;;;;2.28;1.88;;;;;;;;;;5012006;28;20457;-76
2023/10/12 12:01:02;;;;;;;3.60;2.10;;;;;;;;;;5013567;28;20154;-76
2023/10/12 12:03:29;;;;;;;3.08;2.10;;;;;;;;;;5013285;28;20042;-76
2023/10/12 12:05:55;;;;;;;2.67;2.00;;;;;;;;;;5013467;28;20034;-77
2023/10/12 12:08:25;;;;;;;2.03;1.77;;;;;;;;;;5013424;28;20053;-76
2023/10/12 12:13:20;;;;;;;3.20;1.70;;;20.30;88.70;;;;;;5013495;28;20476;-77
2023/10/12 12:15:48;;;;;;;2.92;1.75;;;20.30;88.40;;;;;;5013172;28;20074;-74
2023/10/12 12:18:19;;;;;;;3.28;1.88;;;20.40;88.70;;;;;;5013257;28;20037;-77
2023/10/12 12:20:50;;;;;;;2.33;1.80;;;20.40;83.40;;;;;;5013333;28;20065;-75
2023/10/12 12:23:17;;;;;;;2.38;1.95;;;20.40;88.80;;;;;;5013257;28;20049;-75
2023/10/12 12:25:44;;;;;;;2.38;2.00;;;;;;;;;;5013380;28;20124;-77
2023/10/12 12:28:14;;;;;;;2.50;1.85;;;20.40;86.40;;;;;;5013242;28;20053;-76
2023/10/12 12:30:46;;;;;;;3.50;2.15;;;20.40;88.00;;;;;;5013479;28;20033;-73
2023/10/12 12:33:22;;;;;;;2.15;1.77;;;20.40;87.20;;;;;;5013402;28;20042;-73
2023/10/12 12:36:22;;;;;;;4.10;1.98;;;20.40;86.20;;;;;;5013104;28;20443;-75
2023/10/12 12:41:19;;;;;;;2.35;2.15;;;;;;;;;;5013302;28;20048;-77
2023/10/12 12:43:46;;;;;;;2.75;1.92;;;20.40;87.70;;;;;;5013225;28;20037;-74
2023/10/12 12:46:13;;;;;;;3.38;2.25;;;;;;;;;;5012619;28;20036;-74
2023/10/12 12:48:45;;;;;;;2.08;1.80;;;;;;;;;;5013107;28;20044;-75
2023/10/12 12:51:15;;;;;;;2.83;2.00;;;20.30;83.80;;;;;;5012861;28;20080;-75
2023/10/12 12:53:46;;;;;;;3.17;2.15;;;20.40;86.80;;;;;;4995201;28;20049;-76
2023/10/12 12:56:14;;;;;;;;;;;20.40;90.00;;;;;;4996507;28;20034;-75
2023/10/12 12:58:51;;;;;;;3.83;2.50;;;20.40;89.20;;;;;;4995699;28;19955;-73
2023/10/12 13:01:26;;;;;;;2.63;2.10;;;20.40;83.80;;;;;;4995513;28;20038;-74
2023/10/12 13:04:09;;;;;;;2.10;1.90;;;;;;;;;;5010945;28;20500;-75
2023/10/12 13:06:35;;;;;;;2.38;2.10;;;;;;;;;;5012279;28;20054;-75
2023/10/12 13:09:02;;;;;;;4.40;2.28;;;;;;;;;;5012709;28;20057;-75
2023/10/12 13:11:28;;;;;;;3.13;2.10;;;;;;;;;;5012383;28;20495;-74
2023/10/12 13:13:54;;;;;;;2.80;1.88;;;;;;;;;;4995149;28;20124;-74
2023/10/12 13:16:20;;;;;;;2.92;2.22;;;;;;;;;;4994942;28;20129;-75
2023/10/12 13:18:46;;;;;;;3.20;1.90;;;;;;;;;;4995063;28;20053;-73
2023/10/12 13:21:16;;;;;;;2.40;1.90;;;;;;;;;;4995035;28;20041;-75
2023/10/12 13:23:45;;;;;;;2.42;2.08;;;20.40;86.40;;;;;;5012579;28;20489;-75
2023/10/12 13:26:14;;;;;;;2.15;1.95;;;20.50;89.50;;;;;;4995053;28;20053;-75
2023/10/12 13:28:41;;;;;;;2.65;2.00;;;20.40;86.60;;;;;;4995120;28;20030;-75
2023/10/12 13:31:10;;;;;;;2.95;2.17;;;20.40;86.60;;;;;;4995312;28;20077;-75
2023/10/12 13:33:38;;;;;;;3.60;2.50;;;20.50;88.10;;;;;;4995314;28;20042;-73
2023/10/12 13:36:04;;;;;;;3.50;2.70;;;20.40;88.80;;;;;;4995502;28;20065;-75
2023/10/12 13:38:36;;;;;;;5.43;2.88;;;;;;;;;;4994970;28;20572;-73
2023/10/12 13:41:03;;;;;;;3.72;2.67;;;;;;;;;;4995388;28;20042;-73
2023/10/12 13:43:34;;;;;;;3.05;2.08;;;;;;;;;;4995117;28;20460;-71
2023/10/12 13:46:11;;;;;;;2.70;2.28;;;;;;;;;;4995788;28;20447;-71
2023/10/12 13:48:37;;;;;;;3.15;2.50;;;;;;;;;;5012132;28;20050;-74
2023/10/12 13:51:04;;;;;;;4.32;2.75;;;;;;;;;;4994908;28;20144;-75
2023/10/12 13:53:36;;;;;;;3.38;2.38;;;;;;;;;;5012391;28;20046;-73
2023/10/12 13:56:08;;;;;;;3.85;2.53;;;20.40;83.60;;;;;;5012272;28;20217;-73
2023/10/12 13:58:39;;;;;;;4.45;2.72;;;20.50;83.90;;;;;;5014547;28;20117;-73
2023/10/12 14:01:13;;;;;;;3.45;2.28;;;20.50;89.30;;;;;;5016130;28;20125;-73
2023/10/12 14:03:53;;;;;;;3.03;2.47;;;20.50;89.10;;;;;;5015682;28;20041;-73
2023/10/12 14:06:20;;;;;;;2.45;2.00;;;;;;;;;;5016133;28;20146;-77
2023/10/12 14:08:47;;;;;;;4.30;2.80;;;;;;;;;;5016047;28;20040;-77
2023/10/12 14:11:14;;;;;;;2.67;2.17;;;20.40;89.20;;;;;;5015946;28;20381;-76
2023/10/12 14:13:40;;;;;;;3.83;2.40;;;;;;;;;;5015563;28;20484;-76
2023/10/12 14:16:09;;;;;;;4.57;2.42;;;;;;;;;;5015761;28;20469;-77
2023/10/12 14:18:35;;;;;;;3.70;2.40;;;;;;;;;;5015791;28;20034;-77
2023/10/12 14:21:02;;;;;;;3.75;2.60;;;;;;;;;;5015735;28;20112;-77
2023/10/12 14:23:30;;;;;;;5.18;2.53;;;;;;;;;;5015326;28;20037;-77
2023/10/12 14:26:00;;;;;;;3.75;2.33;;;;;;;;;;5015292;28;20053;-74
2023/10/12 14:28:34;;;;;;;4.10;2.38;;;;;;;;;;5015224;28;20069;-74
2023/10/12 14:31:00;;;;;;;5.78;2.33;;;;;;;;;;5015600;28;20033;-74
2023/10/12 14:33:30;;;;;;;4.22;2.20;;;;;;;;;;5015160;28;20431;-74
2023/10/12 14:35:56;;;;;;;4.43;2.53;;;;;;;;;;5015256;28;20120;-74
2023/10/12 14:38:22;;;;;;;3.67;2.25;;;;;;;;;;5015075;28;20038;-74
2023/10/12 14:40:50;;;;;;;3.85;2.33;;;20.50;89.60;;;;;;5015121;28;20033;-74
2023/10/12 14:43:17;;;;;;;2.25;1.95;;;;;;;;;;5015477;28;20088;-75
2023/10/12 14:45:55;;;;;;;3.03;2.45;;;20.40;84.20;;;;;;5014922;28;20034;-75
2023/10/12 14:48:25;;;;;;;4.88;2.22;;;20.40;87.30;;;;;;5014844;28;20488;-75
2023/10/12 14:51:09;;;;;;;2.92;2.22;;;20.40;84.20;;;;;;5015158;28;20109;-77
2023/10/12 14:53:35;;;;;;;3.15;2.35;;;;;;;;;;5015253;28;20084;-77
2023/10/12 14:56:03;;;;;;;3.38;2.38;;;20.40;87.20;;;;;;5015062;28;20041;-76
2023/10/12 14:58:30;;;;;;;3.80;2.10;;;;;;;;;;5015039;28;20026;-78
2023/10/12 15:00:56;;;;;;;4.07;1.90;;;;;;;;;;5014653;28;20037;-76
2023/10/12 15:03:22;;;;;;;3.38;2.22;;;;;;;;;;5014317;28;20073;-77
2023/10/12 15:05:53;;;;;;;3.28;2.15;;;20.40;89.60;;;;;;5014248;28;20049;-77
2023/10/12 15:08:19;;;;;;;2.33;2.00;;;;;;;;;;5014225;28;20045;-77
2023/10/12 15:10:46;;;;;;;2.97;2.10;;;20.40;89.90;;;;;;5014662;28;20038;-77
2023/10/12 15:13:14;;;;;;;2.42;2.00;;;20.40;89.80;;;;;;5014849;28;20026;-74
2023/10/12 15:15:40;;;;;;;4.68;2.50;;;;;;;;;;5014278;28;20038;-75
2023/10/12 15:18:06;;;;;;;3.33;2.05;;;;;;;;;;4996730;28;20041;-73
2023/10/12 15:20:34;;;;;;;3.00;2.10;;;;;;;;;;5014682;28;20041;-74
2023/10/12 15:23:00;;;;;;;3.67;2.35;;;;;;;;;;5014136;28;20048;-73
2023/10/12 15:25:27;;;;;;;3.92;2.40;;;;;;;;;;5014409;28;20491;-73
2023/10/12 15:27:54;;;;;;;4.32;2.85;;;;;;;;;;5014046;28;20529;-73
2023/10/12 15:30:24;;;;;;;4.95;2.35;;;;;;;;;;5014016;28;20034;-77
2023/10/12 15:32:51;;;;;;;2.90;1.98;;;20.40;88.00;;;;;;5014691;28;20420;-78
2023/10/12 15:35:23;;;;;;;4.35;2.38;;;;;;;;;;5014382;28;20125;-76
2023/10/12 15:37:52;;;;;;;3.08;2.35;;;20.40;90.00;;;;;;5014387;28;20041;-78
2023/10/12 15:40:25;;;;;;;4.70;2.28;;;20.40;90.10;;;;;;5014249;28;20029;-79
2023/10/12 15:42:55;;;;;;;2.35;2.03;;;20.40;89.60;;;;;;5014138;28;20693;-76
2023/10/12 15:45:25;;;;;;;3.22;2.20;;;20.40;89.00;;;;;;5014274;28;20038;-78
2023/10/12 15:47:55;;;;;;;4.72;2.42;;;20.40;90.00;;;;;;5014203;28;20042;-82
2023/10/12 15:50:22;;;;;;;4.55;2.60;;;;;;;;;;5014586;28;20026;-84
2023/10/12 15:52:49;;;;;;;2.65;2.03;;;;;;;;;;5013981;28;20440;-78
2023/10/12 15:55:19;;;;;;;3.28;2.20;;;20.50;89.10;;;;;;5014072;28;20030;-79
2023/10/12 15:58:02;;;;;;;2.47;2.28;;;;;;;;;;5012420;28;20046;-76
2023/10/12 16:00:31;;;;;;;4.13;2.05;;;;;;;;;;5013914;28;20105;-83
2023/10/12 16:03:05;;;;;;;3.70;2.42;;;20.40;84.80;;;;;;5013212;28;20077;-79
2023/10/12 16:05:32;;;;;;;4.32;2.17;;;;;;;;;;5014341;28;20022;-83